createdAt,value
2022-09-11T00:00:57.563Z,100.00
2022-09-11T00:02:06.290Z,100.00
2022-09-11T00:03:23.392Z,100.00
2022-09-11T00:04:33.578Z,100.00
2022-09-11T00:05:41.774Z,100.00
2022-09-11T00:06:45.394Z,100.00
2022-09-11T00:07:49.179Z,100.00
2022-09-11T00:09:01.652Z,100.00
2022-09-11T00:10:07.997Z,100.00
2022-09-11T00:11:18.591Z,100.00
2022-09-11T00:12:22.895Z,100.00
2022-09-11T00:13:26.847Z,100.00
2022-09-11T00:14:30.517Z,100.00
2022-09-11T00:15:43.729Z,100.00
2022-09-11T00:16:47.588Z,100.00
2022-09-11T00:17:51.511Z,100.00
2022-09-11T00:18:59.403Z,100.00
2022-09-11T00:20:04.852Z,100.00
2022-09-11T00:21:08.933Z,100.00
2022-09-11T00:22:12.410Z,100.00
2022-09-11T00:23:18.314Z,100.00
2022-09-11T00:24:21.966Z,100.00
2022-09-11T00:25:25.804Z,100.00
2022-09-11T00:26:35.855Z,100.00
2022-09-11T00:27:39.426Z,100.00
2022-09-11T00:28:47.022Z,100.00
2022-09-11T00:29:50.751Z,100.00
2022-09-11T00:31:05.451Z,100.00
2022-09-11T00:32:11.198Z,100.00
2022-09-11T00:33:18.883Z,100.00
2022-09-11T00:34:32.047Z,100.00
2022-09-11T00:35:36.311Z,100.00
2022-09-11T00:36:41.822Z,100.00
2022-09-11T00:37:45.540Z,100.00
2022-09-11T00:38:50.407Z,100.00
2022-09-11T00:39:54.670Z,100.00
2022-09-11T00:41:02.456Z,100.00
2022-09-11T00:42:06.853Z,100.00
2022-09-11T00:43:13.882Z,100.00
2022-09-11T00:44:18.532Z,100.00
2022-09-11T00:45:27.637Z,100.00
2022-09-11T00:46:43.390Z,100.00
2022-09-11T00:47:48.770Z,100.00
2022-09-11T00:48:56.150Z,100.00
2022-09-11T00:50:20.414Z,100.00
2022-09-11T00:51:33.892Z,100.00
2022-09-11T00:52:49.013Z,100.00
2022-09-11T00:53:58.676Z,100.00
2022-09-11T00:55:14.746Z,100.00
2022-09-11T00:56:22.794Z,100.00
2022-09-11T00:57:33.162Z,100.00
2022-09-11T00:58:42.806Z,100.00
2022-09-11T00:59:49.584Z,100.00
2022-09-11T01:00:57.124Z,100.00
2022-09-11T01:02:02.320Z,100.00
2022-09-11T01:03:06.222Z,100.00
2022-09-11T01:04:12.354Z,100.00
2022-09-11T01:05:17.625Z,100.00
2022-09-11T01:06:21.808Z,100.00
2022-09-11T01:07:29.330Z,100.00
2022-09-11T01:08:36.523Z,100.00
2022-09-11T01:09:43.252Z,100.00
2022-09-11T01:11:04.688Z,100.00
2022-09-11T01:12:36.313Z,100.00
2022-09-11T01:14:06.517Z,100.00
2022-09-11T01:15:23.694Z,100.00
2022-09-11T01:16:39.370Z,100.00
2022-09-11T01:18:31.793Z,100.00
2022-09-11T01:20:21.579Z,100.00
2022-09-11T01:22:07.855Z,100.00
2022-09-11T01:23:55.315Z,100.00
2022-09-11T01:25:38.209Z,100.00
2022-09-11T01:26:53.809Z,100.00
2022-09-11T01:28:06.638Z,100.00
2022-09-11T01:29:24.609Z,100.00
2022-09-11T01:30:43.319Z,100.00
2022-09-11T01:32:04.927Z,100.00
2022-09-11T01:33:34.547Z,100.00
2022-09-11T01:35:39.230Z,100.00
2022-09-11T01:36:54.147Z,100.00
2022-09-11T01:38:03.773Z,100.00
2022-09-11T01:39:07.769Z,100.00
2022-09-11T01:40:26.316Z,100.00
2022-09-11T01:41:53.306Z,100.00
2022-09-11T01:43:12.513Z,100.00
2022-09-11T01:44:50.469Z,100.00
2022-09-11T01:45:58.427Z,100.00
2022-09-11T01:47:07.067Z,100.00
2022-09-11T01:48:16.398Z,100.00
2022-09-11T01:49:56.065Z,100.00
2022-09-11T01:51:03.811Z,100.00
2022-09-11T01:52:19.657Z,100.00
2022-09-11T01:53:32.898Z,100.00
2022-09-11T01:54:56.373Z,100.00
2022-09-11T01:56:11.292Z,100.00
2022-09-11T01:57:37.810Z,100.00
2022-09-11T01:58:45.558Z,100.00
2022-09-11T01:59:57.976Z,100.00
2022-09-11T02:01:17.270Z,100.00
2022-09-11T02:02:33.399Z,100.00
2022-09-11T02:03:51.110Z,100.00
2022-09-11T02:05:09.893Z,100.00
2022-09-11T02:06:31.129Z,100.00
2022-09-11T02:08:17.630Z,100.00
2022-09-11T02:09:27.618Z,100.00
2022-09-11T02:10:40.919Z,100.00
2022-09-11T02:11:49.686Z,100.00
2022-09-11T02:13:28.783Z,100.00
2022-09-11T02:14:53.542Z,100.00
2022-09-11T02:16:20.264Z,100.00
2022-09-11T02:17:55.166Z,100.00
2022-09-11T02:19:14.087Z,100.00
2022-09-11T02:20:18.127Z,100.00
2022-09-11T02:21:21.885Z,100.00
2022-09-11T02:22:26.907Z,100.00
2022-09-11T02:23:30.567Z,100.00
2022-09-11T02:24:34.473Z,100.00
2022-09-11T02:25:38.206Z,100.00
2022-09-11T02:26:50.841Z,100.00
2022-09-11T02:27:55.117Z,100.00
2022-09-11T02:28:59.824Z,100.00
2022-09-11T02:30:03.916Z,100.00
2022-09-11T02:31:08.126Z,100.00
2022-09-11T02:32:12.404Z,100.00
2022-09-11T02:33:38.191Z,100.00
2022-09-11T02:34:45.976Z,100.00
2022-09-11T02:35:54.808Z,100.00
2022-09-11T02:37:20.654Z,100.00
2022-09-11T02:38:41.535Z,100.00
2022-09-11T02:40:39.074Z,100.00
2022-09-11T02:41:57.837Z,100.00
2022-09-11T02:43:28.741Z,100.00
2022-09-11T02:45:21.832Z,100.00
2022-09-11T02:47:09.759Z,100.00
2022-09-11T02:49:14.345Z,100.00
2022-09-11T02:50:41.749Z,100.00
2022-09-11T02:51:52.365Z,100.00
2022-09-11T02:53:14.531Z,100.00
2022-09-11T02:55:00.079Z,100.00
2022-09-11T02:56:16.597Z,100.00
2022-09-11T02:57:37.082Z,100.00
2022-09-11T02:58:56.586Z,100.00
2022-09-11T03:00:05.871Z,100.00
2022-09-11T03:01:10.303Z,100.00
2022-09-11T03:02:15.615Z,100.00
2022-09-11T03:03:20.845Z,100.00
2022-09-11T03:04:25.434Z,100.00
2022-09-11T03:05:29.285Z,100.00
2022-09-11T03:06:33.197Z,100.00
2022-09-11T03:07:37.273Z,100.00
2022-09-11T03:08:41.231Z,100.00
2022-09-11T03:09:44.988Z,100.00
2022-09-11T03:10:50.257Z,100.00
2022-09-11T03:11:55.213Z,100.00
2022-09-11T03:12:59.827Z,100.00
2022-09-11T03:14:03.333Z,100.00
2022-09-11T03:15:10.116Z,100.00
2022-09-11T03:16:14.092Z,100.00
2022-09-11T03:17:17.982Z,100.00
2022-09-11T03:18:21.594Z,100.00
2022-09-11T03:19:25.877Z,100.00
2022-09-11T03:20:29.365Z,100.00
2022-09-11T03:21:35.282Z,100.00
2022-09-11T03:22:39.865Z,100.00
2022-09-11T03:23:44.008Z,100.00
2022-09-11T03:24:48.280Z,100.00
2022-09-11T03:25:52.308Z,100.00
2022-09-11T03:26:56.062Z,100.00
2022-09-11T03:27:59.603Z,100.00
2022-09-11T03:29:04.712Z,100.00
2022-09-11T03:30:09.735Z,100.00
2022-09-11T03:31:14.089Z,100.00
2022-09-11T03:32:17.949Z,100.00
2022-09-11T03:33:21.444Z,100.00
2022-09-11T03:34:26.226Z,100.00
2022-09-11T03:35:30.008Z,100.00
2022-09-11T03:36:34.565Z,100.00
2022-09-11T03:37:38.530Z,100.00
2022-09-11T03:38:42.110Z,100.00
2022-09-11T03:39:45.854Z,100.00
2022-09-11T03:40:49.401Z,100.00
2022-09-11T03:41:54.321Z,100.00
2022-09-11T03:42:59.841Z,100.00
2022-09-11T03:44:03.600Z,100.00
2022-09-11T03:45:07.649Z,100.00
2022-09-11T03:46:11.621Z,100.00
2022-09-11T03:47:15.295Z,100.00
2022-09-11T03:48:20.108Z,100.00
2022-09-11T03:49:23.764Z,100.00
2022-09-11T03:50:28.103Z,100.00
2022-09-11T03:51:32.221Z,100.00
2022-09-11T03:52:36.326Z,100.00
2022-09-11T03:53:40.141Z,100.00
2022-09-11T03:54:43.740Z,100.00
2022-09-11T03:55:50.183Z,100.00
2022-09-11T03:56:53.829Z,100.00
2022-09-11T03:57:59.465Z,100.00
2022-09-11T03:59:03.941Z,100.00
2022-09-11T04:00:09.054Z,100.00
2022-09-11T04:01:15.874Z,100.00
2022-09-11T04:02:19.523Z,100.00
2022-09-11T04:03:23.094Z,100.00
2022-09-11T04:04:26.855Z,100.00
2022-09-11T04:05:30.694Z,100.00
2022-09-11T04:06:34.335Z,100.00
2022-09-11T04:07:38.697Z,100.00
2022-09-11T04:08:42.334Z,100.00
2022-09-11T04:09:46.685Z,100.00
2022-09-11T04:10:57.147Z,100.00
2022-09-11T04:12:00.729Z,100.00
2022-09-11T04:13:05.265Z,100.00
2022-09-11T04:14:08.935Z,100.00
2022-09-11T04:15:12.691Z,100.00
2022-09-11T04:16:19.606Z,100.00
2022-09-11T04:17:24.613Z,100.00
2022-09-11T04:18:32.544Z,100.00
2022-09-11T04:19:38.589Z,100.00
2022-09-11T04:20:42.366Z,100.00
2022-09-11T04:21:45.979Z,100.00
2022-09-11T04:22:50.033Z,100.00
2022-09-11T04:23:56.603Z,100.00
2022-09-11T04:25:00.461Z,100.00
2022-09-11T04:26:14.641Z,100.00
2022-09-11T04:27:19.163Z,100.00
2022-09-11T04:28:23.768Z,100.00
2022-09-11T04:29:28.827Z,100.00
2022-09-11T04:30:35.674Z,100.00
2022-09-11T04:31:41.465Z,100.00
2022-09-11T04:32:46.393Z,100.00
2022-09-11T04:33:50.461Z,100.00
2022-09-11T04:34:54.315Z,100.00
2022-09-11T04:35:57.787Z,100.00
2022-09-11T04:37:01.530Z,100.00
2022-09-11T04:38:05.097Z,100.00
2022-09-11T04:39:09.402Z,100.00
2022-09-11T04:40:12.943Z,100.00
2022-09-11T04:41:17.040Z,100.00
2022-09-11T04:42:24.607Z,100.00
2022-09-11T04:43:29.215Z,100.00
2022-09-11T04:44:32.840Z,100.00
2022-09-11T04:45:36.783Z,100.00
2022-09-11T04:46:41.188Z,100.00
2022-09-11T04:47:44.901Z,100.00
2022-09-11T04:48:52.269Z,100.00
2022-09-11T04:49:55.826Z,100.00
2022-09-11T04:51:08.623Z,100.00
2022-09-11T04:52:12.271Z,100.00
2022-09-11T04:53:15.985Z,100.00
2022-09-11T04:54:21.458Z,100.00
2022-09-11T04:55:26.012Z,100.00
2022-09-11T04:56:33.013Z,100.00
2022-09-11T04:57:36.581Z,100.00
2022-09-11T04:58:43.153Z,100.00
2022-09-11T04:59:48.692Z,100.00
2022-09-11T05:00:52.288Z,100.00
2022-09-11T05:01:55.965Z,100.00
2022-09-11T05:02:59.490Z,100.00
2022-09-11T05:04:03.359Z,100.00
2022-09-11T05:05:09.379Z,100.00
2022-09-11T05:06:16.762Z,100.00
2022-09-11T05:07:20.333Z,100.00
2022-09-11T05:08:26.822Z,100.00
2022-09-11T05:09:30.600Z,100.00
2022-09-11T05:10:39.054Z,100.00
2022-09-11T05:11:43.258Z,100.00
2022-09-11T05:12:47.216Z,100.00
2022-09-11T05:13:50.717Z,100.00
2022-09-11T05:14:54.457Z,100.00
2022-09-11T05:16:05.802Z,100.00
2022-09-11T05:17:10.258Z,100.00
2022-09-11T05:18:13.778Z,100.00
2022-09-11T05:19:17.325Z,100.00
2022-09-11T05:20:21.011Z,100.00
2022-09-11T05:21:26.896Z,100.00
2022-09-11T05:22:30.727Z,100.00
2022-09-11T05:23:34.857Z,100.00
2022-09-11T05:24:39.580Z,100.00
2022-09-11T05:25:43.426Z,100.00
2022-09-11T05:26:46.937Z,100.00
2022-09-11T05:27:50.508Z,100.00
2022-09-11T05:28:58.973Z,100.00
2022-09-11T05:30:03.166Z,100.00
2022-09-11T05:31:17.298Z,100.00
2022-09-11T05:32:21.083Z,100.00
2022-09-11T05:33:26.949Z,100.00
2022-09-11T05:34:30.738Z,100.00
2022-09-11T05:35:34.438Z,100.00
2022-09-11T05:36:38.288Z,100.00
2022-09-11T05:37:41.759Z,100.00
2022-09-11T05:38:45.964Z,100.00
2022-09-11T05:39:49.557Z,100.00
2022-09-11T05:40:53.105Z,100.00
2022-09-11T05:41:56.865Z,100.00
2022-09-11T05:43:00.386Z,100.00
2022-09-11T05:44:04.189Z,100.00
2022-09-11T05:45:08.369Z,100.00
2022-09-11T05:46:15.608Z,100.00
2022-09-11T05:47:19.568Z,100.00
2022-09-11T05:48:23.974Z,100.00
2022-09-11T05:49:27.539Z,100.00
2022-09-11T05:50:32.855Z,100.00
2022-09-11T05:51:37.870Z,100.00
2022-09-11T05:52:41.866Z,100.00
2022-09-11T05:53:46.711Z,100.00
2022-09-11T05:54:50.414Z,100.00
2022-09-11T05:55:55.317Z,100.00
2022-09-11T05:56:58.924Z,100.00
2022-09-11T05:58:02.953Z,100.00
2022-09-11T05:59:15.885Z,100.00
2022-09-11T06:00:20.846Z,100.00
2022-09-11T06:01:28.526Z,100.00
2022-09-11T06:02:32.319Z,100.00
2022-09-11T06:03:38.989Z,100.00
2022-09-11T06:04:42.719Z,100.00
2022-09-11T06:05:46.205Z,100.00
2022-09-11T06:06:50.312Z,100.00
2022-09-11T06:07:54.369Z,100.00
2022-09-11T06:08:58.392Z,100.00
2022-09-11T06:10:03.347Z,100.00
2022-09-11T06:11:08.393Z,100.00
2022-09-11T06:12:12.759Z,100.00
2022-09-11T06:13:19.329Z,100.00
2022-09-11T06:14:23.340Z,100.00
2022-09-11T06:15:45.536Z,100.00
2022-09-11T06:16:50.049Z,100.00
2022-09-11T06:17:53.727Z,100.00
2022-09-11T06:18:57.750Z,100.00
2022-09-11T06:20:01.881Z,100.00
2022-09-11T06:21:11.464Z,100.00
2022-09-11T06:22:15.203Z,100.00
2022-09-11T06:23:18.991Z,100.00
2022-09-11T06:24:22.548Z,100.00
2022-09-11T06:25:26.765Z,100.00
2022-09-11T06:26:30.309Z,100.00
2022-09-11T06:27:34.122Z,100.00
2022-09-11T06:28:40.137Z,100.00
2022-09-11T06:29:44.998Z,100.00
2022-09-11T06:30:53.327Z,100.00
2022-09-11T06:31:56.963Z,100.00
2022-09-11T06:33:00.458Z,100.00
2022-09-11T06:34:04.305Z,100.00
2022-09-11T06:35:08.492Z,100.00
2022-09-11T06:36:19.913Z,99.68
2022-09-11T06:37:23.813Z,99.22
2022-09-11T06:38:28.494Z,98.75
2022-09-11T06:39:32.065Z,98.35
2022-09-11T06:40:38.239Z,98.08
2022-09-11T06:41:42.291Z,97.69
2022-09-11T06:42:46.189Z,97.62
2022-09-11T06:43:49.712Z,97.26
2022-09-11T06:44:53.197Z,97.08
2022-09-11T06:46:04.278Z,97.29
2022-09-11T06:47:08.063Z,97.06
2022-09-11T06:48:12.119Z,97.16
2022-09-11T06:49:16.339Z,96.94
2022-09-11T06:50:19.824Z,96.78
2022-09-11T06:51:24.221Z,96.73
2022-09-11T06:52:28.420Z,96.69
2022-09-11T06:53:32.274Z,96.71
2022-09-11T06:54:35.887Z,96.60
2022-09-11T06:55:40.608Z,96.53
2022-09-11T06:56:45.309Z,96.72
2022-09-11T06:57:49.892Z,96.95
2022-09-11T06:58:53.779Z,96.88
2022-09-11T07:00:00.139Z,96.95
2022-09-11T07:01:06.433Z,96.74
2022-09-11T07:02:10.588Z,97.06
2022-09-11T07:03:15.364Z,96.98
2022-09-11T07:04:19.042Z,97.04
2022-09-11T07:05:23.454Z,96.87
2022-09-11T07:06:30.417Z,96.86
2022-09-11T07:07:34.224Z,96.68
2022-09-11T07:08:39.653Z,96.48
2022-09-11T07:09:43.195Z,96.10
2022-09-11T07:10:46.881Z,96.29
2022-09-11T07:11:50.894Z,96.34
2022-09-11T07:12:55.985Z,95.77
2022-09-11T07:14:01.719Z,96.12
2022-09-11T07:15:07.750Z,96.12
2022-09-11T07:16:14.552Z,95.83
2022-09-11T07:17:19.021Z,95.91
2022-09-11T07:18:22.457Z,95.83
2022-09-11T07:19:26.437Z,95.55
2022-09-11T07:20:30.053Z,95.58
2022-09-11T07:21:34.611Z,95.54
2022-09-11T07:22:39.185Z,95.20
2022-09-11T07:23:46.626Z,94.96
2022-09-11T07:24:52.750Z,94.76
2022-09-11T07:25:56.243Z,94.74
2022-09-11T07:27:00.962Z,94.37
2022-09-11T07:28:05.394Z,94.47
2022-09-11T07:29:09.032Z,94.19
2022-09-11T07:30:14.016Z,94.49
2022-09-11T07:31:35.471Z,94.49
2022-09-11T07:32:39.160Z,94.48
2022-09-11T07:33:48.935Z,94.21
2022-09-11T07:34:52.582Z,94.30
2022-09-11T07:35:56.324Z,94.48
2022-09-11T07:36:59.963Z,94.57
2022-09-11T07:38:03.447Z,94.38
2022-09-11T07:39:07.298Z,94.39
2022-09-11T07:40:11.221Z,94.67
2022-09-11T07:41:18.768Z,94.52
2022-09-11T07:42:23.486Z,94.50
2022-09-11T07:43:27.384Z,94.67
2022-09-11T07:44:30.932Z,94.96
2022-09-11T07:45:34.559Z,94.87
2022-09-11T07:46:41.707Z,94.91
2022-09-11T07:47:45.343Z,94.90
2022-09-11T07:48:49.215Z,95.19
2022-09-11T07:49:52.692Z,95.19
2022-09-11T07:51:05.529Z,95.33
2022-09-11T07:52:12.641Z,95.29
2022-09-11T07:53:19.737Z,95.35
2022-09-11T07:54:23.409Z,95.35
2022-09-11T07:55:26.930Z,95.62
2022-09-11T07:56:31.248Z,95.99
2022-09-11T07:57:35.307Z,95.60
2022-09-11T07:58:42.934Z,95.56
2022-09-11T07:59:46.652Z,95.61
2022-09-11T08:00:58.179Z,95.46
2022-09-11T08:02:02.646Z,95.52
2022-09-11T08:03:07.286Z,95.56
2022-09-11T08:04:14.458Z,95.95
2022-09-11T08:05:18.807Z,95.89
2022-09-11T08:06:24.011Z,95.83
2022-09-11T08:07:27.639Z,95.88
2022-09-11T08:08:33.223Z,95.72
2022-09-11T08:09:37.113Z,95.75
2022-09-11T08:10:41.086Z,95.69
2022-09-11T08:11:48.981Z,95.75
2022-09-11T08:12:56.821Z,95.47
2022-09-11T08:14:03.162Z,95.13
2022-09-11T08:15:10.867Z,95.04
2022-09-11T08:16:14.674Z,94.61
2022-09-11T08:17:18.230Z,94.64
2022-09-11T08:18:21.757Z,94.61
2022-09-11T08:19:25.648Z,94.63
2022-09-11T08:20:29.387Z,94.61
2022-09-11T08:21:33.489Z,94.61
2022-09-11T08:22:37.811Z,94.65
2022-09-11T08:23:44.292Z,94.62
2022-09-11T08:24:48.749Z,94.66
2022-09-11T08:25:54.024Z,94.87
2022-09-11T08:26:57.982Z,95.26
2022-09-11T08:28:01.771Z,95.15
2022-09-11T08:29:05.932Z,95.58
2022-09-11T08:30:11.786Z,95.87
2022-09-11T08:31:15.633Z,95.90
2022-09-11T08:32:20.622Z,96.09
2022-09-11T08:33:24.770Z,96.51
2022-09-11T08:34:28.269Z,96.63
2022-09-11T08:35:34.505Z,96.46
2022-09-11T08:36:38.715Z,96.72
2022-09-11T08:37:43.340Z,96.83
2022-09-11T08:38:48.349Z,96.94
2022-09-11T08:39:52.039Z,96.85
2022-09-11T08:40:59.255Z,96.96
2022-09-11T08:42:16.646Z,97.16
2022-09-11T08:43:31.670Z,97.28
2022-09-11T08:44:58.906Z,97.50
2022-09-11T08:46:10.990Z,97.52
2022-09-11T08:47:22.312Z,97.42
2022-09-11T08:49:02.452Z,97.75
2022-09-11T08:50:18.372Z,97.41
2022-09-11T08:51:22.293Z,97.31
2022-09-11T08:52:26.285Z,97.38
2022-09-11T08:53:33.385Z,97.42
2022-09-11T08:54:41.126Z,97.64
2022-09-11T08:56:00.467Z,97.88
2022-09-11T08:57:37.977Z,97.84
2022-09-11T08:59:24.028Z,97.96
2022-09-11T09:00:51.597Z,98.11
2022-09-11T09:02:39.322Z,98.22
2022-09-11T09:04:13.988Z,98.31
2022-09-11T09:05:28.491Z,98.30
2022-09-11T09:06:53.427Z,98.40
2022-09-11T09:08:35.537Z,98.61
2022-09-11T09:10:31.460Z,98.03
2022-09-11T09:12:17.019Z,98.21
2022-09-11T09:14:07.043Z,97.85
2022-09-11T09:16:02.636Z,97.78
2022-09-11T09:17:25.225Z,97.52
2022-09-11T09:18:38.616Z,97.52
2022-09-11T09:20:01.444Z,97.55
2022-09-11T09:21:16.096Z,97.16
2022-09-11T09:22:33.539Z,97.21
2022-09-11T09:23:47.084Z,97.23
2022-09-11T09:25:00.112Z,97.36
2022-09-11T09:26:04.131Z,97.33
2022-09-11T09:27:17.934Z,97.25
2022-09-11T09:28:25.835Z,97.02
2022-09-11T09:29:38.456Z,97.39
2022-09-11T09:30:56.638Z,96.90
2022-09-11T09:32:16.175Z,97.12
2022-09-11T09:33:59.290Z,96.91
2022-09-11T09:35:15.659Z,96.85
2022-09-11T09:36:28.396Z,96.62
2022-09-11T09:37:32.247Z,96.76
2022-09-11T09:38:36.144Z,96.40
2022-09-11T09:39:40.586Z,96.92
2022-09-11T09:41:16.547Z,96.70
2022-09-11T09:42:57.337Z,96.67
2022-09-11T09:44:19.832Z,96.67
2022-09-11T09:45:52.357Z,96.82
2022-09-11T09:46:56.659Z,96.82
2022-09-11T09:48:01.503Z,96.77
2022-09-11T09:49:05.325Z,96.81
2022-09-11T09:50:25.678Z,96.89
2022-09-11T09:51:29.601Z,96.46
2022-09-11T09:52:36.192Z,96.25
2022-09-11T09:53:50.831Z,96.33
2022-09-11T09:55:04.102Z,96.08
2022-09-11T09:56:13.121Z,96.01
2022-09-11T09:57:18.720Z,95.82
2022-09-11T09:58:30.834Z,95.81
2022-09-11T09:59:49.974Z,95.61
2022-09-11T10:00:53.627Z,95.45
2022-09-11T10:01:58.822Z,95.46
2022-09-11T10:03:22.860Z,95.26
2022-09-11T10:04:30.663Z,95.01
2022-09-11T10:05:42.355Z,95.04
2022-09-11T10:06:49.621Z,94.86
2022-09-11T10:07:57.593Z,94.03
2022-09-11T10:09:03.433Z,94.02
2022-09-11T10:10:26.995Z,94.04
2022-09-11T10:11:31.475Z,94.33
2022-09-11T10:12:36.276Z,94.27
2022-09-11T10:13:54.685Z,94.33
2022-09-11T10:15:03.350Z,94.29
2022-09-11T10:16:25.854Z,94.00
2022-09-11T10:17:29.829Z,93.61
2022-09-11T10:18:43.131Z,93.35
2022-09-11T10:19:46.884Z,92.93
2022-09-11T10:20:51.851Z,92.58
2022-09-11T10:22:27.546Z,92.30
2022-09-11T10:23:44.289Z,92.43
2022-09-11T10:25:21.861Z,92.37
2022-09-11T10:26:30.065Z,92.08
2022-09-11T10:27:46.660Z,92.30
2022-09-11T10:28:53.951Z,92.24
2022-09-11T10:29:59.125Z,92.37
2022-09-11T10:31:05.161Z,92.10
2022-09-11T10:32:18.378Z,91.99
2022-09-11T10:33:40.115Z,92.02
2022-09-11T10:34:44.136Z,91.99
2022-09-11T10:35:56.696Z,91.95
2022-09-11T10:37:21.375Z,92.03
2022-09-11T10:38:45.918Z,91.76
2022-09-11T10:39:51.251Z,91.33
2022-09-11T10:41:19.702Z,90.89
2022-09-11T10:42:29.137Z,91.00
2022-09-11T10:43:47.446Z,90.85
2022-09-11T10:44:54.973Z,90.38
2022-09-11T10:46:23.222Z,90.33
2022-09-11T10:47:33.303Z,90.00
2022-09-11T10:48:42.361Z,89.98
2022-09-11T10:49:47.295Z,89.86
2022-09-11T10:51:07.765Z,89.53
2022-09-11T10:52:11.211Z,89.46
2022-09-11T10:53:23.443Z,89.01
2022-09-11T10:54:53.352Z,88.95
2022-09-11T10:56:06.012Z,88.86
2022-09-11T10:57:43.366Z,88.96
2022-09-11T10:58:55.174Z,89.24
2022-09-11T11:00:31.085Z,89.15
2022-09-11T11:01:34.802Z,89.25
2022-09-11T11:02:45.248Z,89.51
2022-09-11T11:03:49.371Z,89.35
2022-09-11T11:04:53.026Z,89.55
2022-09-11T11:07:05.147Z,89.63
2022-09-11T11:08:29.511Z,89.56
2022-09-11T11:10:03.369Z,89.87
2022-09-11T11:11:27.550Z,89.94
2022-09-11T11:12:53.345Z,89.88
2022-09-11T11:14:57.162Z,89.70
2022-09-11T11:16:50.315Z,90.15
2022-09-11T11:18:29.219Z,89.35
2022-09-11T11:20:16.326Z,89.74
2022-09-11T11:21:37.899Z,89.90
2022-09-11T11:23:16.433Z,90.39
2022-09-11T11:25:00.221Z,90.48
2022-09-11T11:26:28.335Z,90.71
2022-09-11T11:27:51.401Z,90.77
2022-09-11T11:29:56.950Z,90.99
2022-09-11T11:31:12.629Z,90.69
2022-09-11T11:32:35.652Z,90.54
2022-09-11T11:34:12.022Z,90.83
2022-09-11T11:35:44.919Z,90.68
2022-09-11T11:37:18.175Z,90.65
2022-09-11T11:38:51.319Z,90.71
2022-09-11T11:40:05.423Z,90.97
2022-09-11T11:41:35.613Z,91.09
2022-09-11T11:42:56.509Z,91.25
2022-09-11T11:44:06.790Z,91.27
2022-09-11T11:45:32.144Z,91.55
2022-09-11T11:46:54.362Z,91.61
2022-09-11T11:48:02.102Z,91.91
2022-09-11T11:49:25.563Z,92.26
2022-09-11T11:50:44.888Z,92.30
2022-09-11T11:52:43.270Z,92.61
2022-09-11T11:54:21.794Z,92.79
2022-09-11T11:55:33.224Z,92.51
2022-09-11T11:56:50.534Z,92.72
2022-09-11T11:58:22.873Z,93.10
2022-09-11T11:59:54.446Z,93.17
2022-09-11T12:01:04.653Z,93.22
2022-09-11T12:02:10.900Z,93.18
2022-09-11T12:03:23.843Z,93.38
2022-09-11T12:05:03.461Z,93.54
2022-09-11T12:06:08.918Z,93.34
2022-09-11T12:07:32.693Z,93.21
2022-09-11T12:08:46.923Z,93.39
2022-09-11T12:09:54.893Z,93.67
2022-09-11T12:11:06.500Z,93.66
2022-09-11T12:12:13.148Z,93.83
2022-09-11T12:13:20.659Z,93.59
2022-09-11T12:14:34.581Z,93.39
2022-09-11T12:15:38.563Z,92.35
2022-09-11T12:16:44.432Z,92.61
2022-09-11T12:18:02.471Z,92.54
2022-09-11T12:19:14.591Z,92.28
2022-09-11T12:20:41.897Z,92.37
2022-09-11T12:21:54.829Z,91.36
2022-09-11T12:22:59.015Z,91.56
2022-09-11T12:24:02.908Z,91.28
2022-09-11T12:25:29.074Z,90.54
2022-09-11T12:26:32.713Z,90.59
2022-09-11T12:27:36.655Z,90.23
2022-09-11T12:28:41.122Z,90.21
2022-09-11T12:30:16.217Z,89.71
2022-09-11T12:31:19.775Z,89.74
2022-09-11T12:32:59.167Z,90.01
2022-09-11T12:34:02.906Z,89.77
2022-09-11T12:35:32.555Z,89.68
2022-09-11T12:37:05.465Z,89.95
2022-09-11T12:38:09.199Z,90.09
2022-09-11T12:39:27.728Z,89.80
2022-09-11T12:40:49.025Z,89.43
2022-09-11T12:41:53.649Z,89.21
2022-09-11T12:43:19.188Z,89.29
2022-09-11T12:44:48.670Z,88.87
2022-09-11T12:45:52.464Z,88.51
2022-09-11T12:46:58.698Z,88.35
2022-09-11T12:48:12.494Z,87.78
2022-09-11T12:49:23.167Z,87.33
2022-09-11T12:50:29.032Z,87.09
2022-09-11T12:51:41.429Z,86.95
2022-09-11T12:52:57.232Z,86.91
2022-09-11T12:54:12.515Z,86.78
2022-09-11T12:55:28.473Z,86.40
2022-09-11T12:56:35.011Z,86.36
2022-09-11T12:57:41.033Z,86.53
2022-09-11T12:58:51.990Z,86.16
2022-09-11T13:00:03.807Z,86.20
2022-09-11T13:01:10.682Z,85.97
2022-09-11T13:02:57.992Z,85.10
2022-09-11T13:04:12.441Z,85.01
2022-09-11T13:05:34.569Z,84.69
2022-09-11T13:06:47.631Z,84.44
2022-09-11T13:08:10.616Z,84.58
2022-09-11T13:09:28.687Z,84.17
2022-09-11T13:10:39.570Z,84.47
2022-09-11T13:11:49.556Z,84.42
2022-09-11T13:12:55.988Z,84.08
2022-09-11T13:14:00.275Z,83.83
2022-09-11T13:15:05.238Z,83.77
2022-09-11T13:16:26.620Z,83.72
2022-09-11T13:17:49.292Z,82.96
2022-09-11T13:19:10.469Z,82.83
2022-09-11T13:20:23.266Z,82.88
2022-09-11T13:21:26.843Z,83.21
2022-09-11T13:22:31.385Z,82.95
2022-09-11T13:23:35.003Z,83.15
2022-09-11T13:24:39.380Z,82.95
2022-09-11T13:25:43.004Z,82.93
2022-09-11T13:26:46.639Z,82.83
2022-09-11T13:27:57.563Z,82.96
2022-09-11T13:29:01.971Z,82.77
2022-09-11T13:30:17.416Z,82.88
2022-09-11T13:31:35.789Z,83.02
2022-09-11T13:32:39.718Z,83.28
2022-09-11T13:33:49.351Z,83.45
2022-09-11T13:35:02.516Z,83.73
2022-09-11T13:36:07.381Z,83.91
2022-09-11T13:37:46.966Z,84.34
2022-09-11T13:39:01.733Z,84.66
2022-09-11T13:40:08.282Z,84.85
2022-09-11T13:41:22.352Z,85.19
2022-09-11T13:42:26.336Z,85.49
2022-09-11T13:43:46.035Z,85.46
2022-09-11T13:44:59.391Z,85.60
2022-09-11T13:46:15.087Z,85.94
2022-09-11T13:47:28.386Z,86.11
2022-09-11T13:57:18.270Z,86.62
2022-09-11T13:58:32.973Z,86.76
2022-09-11T13:59:49.478Z,87.28
2022-09-11T14:00:55.635Z,87.07
2022-09-11T14:02:01.408Z,87.17
2022-09-11T14:03:22.856Z,87.20
2022-09-11T14:04:33.305Z,87.22
2022-09-11T14:05:37.076Z,86.92
2022-09-11T14:06:46.815Z,86.80
2022-09-11T14:07:53.234Z,86.94
2022-09-11T14:08:57.774Z,86.82
2022-09-11T14:10:16.222Z,86.78
2022-09-11T14:11:32.102Z,86.62
2022-09-11T14:12:51.862Z,86.77
2022-09-11T14:14:16.135Z,86.46
2022-09-11T14:16:00.326Z,86.89
2022-09-11T14:17:57.217Z,86.77
2022-09-11T14:21:56.022Z,85.86
2022-09-11T14:23:12.872Z,86.01
2022-09-11T14:24:35.926Z,86.00
2022-09-11T14:26:05.726Z,86.13
2022-09-11T14:27:31.469Z,86.08
2022-09-11T14:28:58.190Z,86.01
2022-09-11T14:30:34.832Z,85.70
2022-09-11T14:31:44.645Z,85.88
2022-09-11T14:32:48.457Z,86.18
2022-09-11T14:34:11.073Z,86.06
2022-09-11T14:35:25.946Z,86.21
2022-09-11T14:36:31.254Z,86.20
2022-09-11T14:37:45.244Z,86.16
2022-09-11T14:38:51.522Z,86.18
2022-09-11T14:40:04.102Z,86.22
2022-09-11T14:41:30.100Z,86.39
2022-09-11T14:43:09.494Z,86.45
2022-09-11T14:44:47.709Z,86.53
2022-09-11T14:46:31.889Z,86.74
2022-09-11T14:48:14.833Z,86.96
2022-09-11T14:57:24.353Z,87.43
2022-09-11T14:58:37.853Z,87.82
2022-09-11T14:59:55.543Z,88.21
2022-09-11T15:01:41.517Z,88.24
2022-09-11T15:02:48.954Z,88.57
2022-09-11T15:03:54.846Z,88.88
2022-09-11T15:04:59.064Z,89.16
2022-09-11T15:06:05.936Z,89.53
2022-09-11T15:07:14.500Z,89.63
2022-09-11T15:08:18.807Z,90.15
2022-09-11T15:09:24.683Z,90.31
2022-09-11T15:10:29.673Z,90.56
2022-09-11T15:11:38.795Z,90.92
2022-09-11T15:12:47.379Z,91.55
2022-09-11T15:14:14.489Z,91.65
2022-09-11T15:15:17.901Z,91.43
2022-09-11T15:16:21.889Z,91.36
2022-09-11T15:17:31.769Z,90.69
2022-09-11T15:18:38.734Z,91.02
2022-09-11T15:19:46.087Z,91.17
2022-09-11T15:20:50.081Z,91.40
2022-09-11T15:21:56.749Z,91.31
2022-09-11T15:23:12.457Z,91.54
2022-09-11T15:24:17.260Z,91.67
2022-09-11T15:25:22.746Z,91.60
2022-09-11T15:26:32.405Z,91.85
2022-09-11T15:27:36.266Z,91.47
2022-09-11T15:28:40.506Z,91.64
2022-09-11T15:29:45.323Z,91.46
2022-09-11T15:30:59.026Z,91.62
2022-09-11T15:32:07.659Z,91.59